sensor_id;sensor_type;location;lat;lon;timestamp;P1;durP1;ratioP1;P2;durP2;ratioP2
4692;SDS011;11710;48.024;16.296;2023-04-24T04:44:49;8.00;;;5.50;;
4692;SDS011;11710;48.024;16.296;2023-04-24T04:47:16;5.93;;;5.10;;
4692;SDS011;11710;48.024;16.296;2023-04-24T04:49:44;8.20;;;5.27;;
4692;SDS011;11710;48.024;16.296;2023-04-24T04:52:11;5.07;;;4.57;;
4692;SDS011;11710;48.024;16.296;2023-04-24T04:54:38;5.53;;;4.23;;
4692;SDS011;11710;48.024;16.296;2023-04-24T04:57:06;6.77;;;4.80;;
4692;SDS011;11710;48.024;16.296;2023-04-24T04:59:33;4.70;;;4.20;;
4692;SDS011;11710;48.024;16.296;2023-04-24T05:02:01;4.53;;;3.60;;
4692;SDS011;11710;48.024;16.296;2023-04-24T05:04:29;4.67;;;4.20;;
4692;SDS011;11710;48.024;16.296;2023-04-24T05:06:56;4.60;;;3.90;;
4692;SDS011;11710;48.024;16.296;2023-04-24T05:09:23;4.53;;;3.80;;
4692;SDS011;11710;48.024;16.296;2023-04-24T05:11:52;4.47;;;3.67;;
4692;SDS011;11710;48.024;16.296;2023-04-24T05:14:20;4.37;;;3.97;;
4692;SDS011;11710;48.024;16.296;2023-04-24T05:16:48;4.57;;;3.80;;
4692;SDS011;11710;48.024;16.296;2023-04-24T05:19:16;4.00;;;3.60;;
4692;SDS011;11710;48.024;16.296;2023-04-24T05:21:43;5.27;;;3.90;;
4692;SDS011;11710;48.024;16.296;2023-04-24T05:24:11;4.83;;;4.13;;
4692;SDS011;11710;48.024;16.296;2023-04-24T05:26:38;4.80;;;4.30;;
4692;SDS011;11710;48.024;16.296;2023-04-24T05:29:05;4.57;;;4.17;;
4692;SDS011;11710;48.024;16.296;2023-04-24T05:31:32;5.83;;;4.37;;
4692;SDS011;11710;48.024;16.296;2023-04-24T05:33:59;3.70;;;3.40;;
4692;SDS011;11710;48.024;16.296;2023-04-24T05:36:28;4.10;;;3.73;;
4692;SDS011;11710;48.024;16.296;2023-04-24T05:38:56;5.83;;;5.10;;
4692;SDS011;11710;48.024;16.296;2023-04-24T05:41:23;4.90;;;4.40;;
4692;SDS011;11710;48.024;16.296;2023-04-24T05:43:50;5.93;;;4.30;;
4692;SDS011;11710;48.024;16.296;2023-04-24T05:46:17;4.60;;;4.17;;
4692;SDS011;11710;48.024;16.296;2023-04-24T05:48:44;4.17;;;3.77;;
4692;SDS011;11710;48.024;16.296;2023-04-24T05:51:12;5.33;;;4.83;;
4692;SDS011;11710;48.024;16.296;2023-04-24T05:53:40;5.80;;;4.23;;
4692;SDS011;11710;48.024;16.296;2023-04-24T05:56:07;4.50;;;4.10;;
4692;SDS011;11710;48.024;16.296;2023-04-24T05:58:35;4.83;;;4.30;;
4692;SDS011;11710;48.024;16.296;2023-04-24T06:01:02;4.07;;;3.67;;
4692;SDS011;11710;48.024;16.296;2023-04-24T06:03:30;5.20;;;4.40;;
4692;SDS011;11710;48.024;16.296;2023-04-24T06:05:58;4.63;;;4.22;;
4692;SDS011;11710;48.024;16.296;2023-04-24T06:08:25;5.10;;;4.60;;
4692;SDS011;11710;48.024;16.296;2023-04-24T06:10:53;4.43;;;3.83;;
4692;SDS011;11710;48.024;16.296;2023-04-24T06:13:20;4.67;;;3.80;;
4692;SDS011;11710;48.024;16.296;2023-04-24T06:15:48;4.90;;;3.70;;
4692;SDS011;11710;48.024;16.296;2023-04-24T06:18:15;4.05;;;3.08;;
4692;SDS011;11710;48.024;16.296;2023-04-24T06:20:42;4.00;;;3.43;;
4692;SDS011;11710;48.024;16.296;2023-04-24T06:23:12;3.65;;;3.33;;
4692;SDS011;11710;48.024;16.296;2023-04-24T06:25:39;4.15;;;3.50;;
4692;SDS011;11710;48.024;16.296;2023-04-24T06:28:08;3.70;;;3.40;;
4692;SDS011;11710;48.024;16.296;2023-04-24T06:30:35;3.65;;;3.35;;
4692;SDS011;11710;48.024;16.296;2023-04-24T06:33:03;9.73;;;3.83;;
4692;SDS011;11710;48.024;16.296;2023-04-24T06:35:30;4.40;;;4.00;;
4692;SDS011;11710;48.024;16.296;2023-04-24T06:37:57;3.43;;;3.13;;
4692;SDS011;11710;48.024;16.296;2023-04-24T06:40:24;3.00;;;2.70;;
4692;SDS011;11710;48.024;16.296;2023-04-24T06:42:51;5.63;;;3.27;;
4692;SDS011;11710;48.024;16.296;2023-04-24T06:45:20;6.40;;;3.30;;
4692;SDS011;11710;48.024;16.296;2023-04-24T06:47:47;5.83;;;3.47;;
4692;SDS011;11710;48.024;16.296;2023-04-24T06:50:15;4.63;;;3.73;;
4692;SDS011;11710;48.024;16.296;2023-04-24T06:52:42;4.50;;;3.30;;
4692;SDS011;11710;48.024;16.296;2023-04-24T06:55:10;4.33;;;3.63;;
4692;SDS011;11710;48.024;16.296;2023-04-24T06:57:37;2.90;;;2.70;;
4692;SDS011;11710;48.024;16.296;2023-04-24T07:00:05;5.60;;;3.20;;
4692;SDS011;11710;48.024;16.296;2023-04-24T07:02:35;2.50;;;2.30;;
4692;SDS011;11710;48.024;16.296;2023-04-24T07:05:04;2.73;;;2.53;;
4692;SDS011;11710;48.024;16.296;2023-04-24T07:07:32;2.50;;;2.30;;
4692;SDS011;11710;48.024;16.296;2023-04-24T07:09:59;3.17;;;2.50;;
4692;SDS011;11710;48.024;16.296;2023-04-24T07:12:26;2.50;;;2.30;;
4692;SDS011;11710;48.024;16.296;2023-04-24T07:14:54;2.60;;;2.30;;
4692;SDS011;11710;48.024;16.296;2023-04-24T07:17:21;3.00;;;2.70;;
4692;SDS011;11710;48.024;16.296;2023-04-24T07:19:49;4.10;;;3.70;;
4692;SDS011;11710;48.024;16.296;2023-04-24T07:22:17;3.20;;;2.60;;
4692;SDS011;11710;48.024;16.296;2023-04-24T07:24:44;3.27;;;2.60;;
4692;SDS011;11710;48.024;16.296;2023-04-24T07:27:11;2.80;;;2.60;;
4692;SDS011;11710;48.024;16.296;2023-04-24T07:29:40;2.90;;;2.63;;
4692;SDS011;11710;48.024;16.296;2023-04-24T07:32:07;2.40;;;2.13;;
4692;SDS011;11710;48.024;16.296;2023-04-24T07:34:34;4.70;;;2.50;;
4692;SDS011;11710;48.024;16.296;2023-04-24T07:37:03;2.47;;;2.27;;
4692;SDS011;11710;48.024;16.296;2023-04-24T07:39:30;2.20;;;2.00;;
4692;SDS011;11710;48.024;16.296;2023-04-24T07:41:58;2.33;;;2.10;;
4692;SDS011;11710;48.024;16.296;2023-04-24T07:44:26;1.70;;;1.60;;
4692;SDS011;11710;48.024;16.296;2023-04-24T07:46:54;3.20;;;1.80;;
4692;SDS011;11710;48.024;16.296;2023-04-24T07:49:22;2.10;;;1.90;;
4692;SDS011;11710;48.024;16.296;2023-04-24T07:51:49;1.90;;;1.80;;
4692;SDS011;11710;48.024;16.296;2023-04-24T07:54:18;1.90;;;1.80;;
4692;SDS011;11710;48.024;16.296;2023-04-24T07:56:46;2.23;;;1.90;;
4692;SDS011;11710;48.024;16.296;2023-04-24T07:59:13;2.33;;;2.10;;
4692;SDS011;11710;48.024;16.296;2023-04-24T08:01:40;1.70;;;1.60;;
4692;SDS011;11710;48.024;16.296;2023-04-24T08:04:07;2.60;;;2.00;;
4692;SDS011;11710;48.024;16.296;2023-04-24T08:06:35;2.40;;;1.87;;
4692;SDS011;11710;48.024;16.296;2023-04-24T08:09:02;2.63;;;2.20;;
4692;SDS011;11710;48.024;16.296;2023-04-24T08:11:31;2.17;;;1.97;;
4692;SDS011;11710;48.024;16.296;2023-04-24T08:13:58;2.53;;;2.33;;
4692;SDS011;11710;48.024;16.296;2023-04-24T08:16:25;7.40;;;1.90;;
4692;SDS011;11710;48.024;16.296;2023-04-24T08:18:53;2.70;;;2.00;;
4692;SDS011;11710;48.024;16.296;2023-04-24T08:21:20;3.43;;;2.30;;
4692;SDS011;11710;48.024;16.296;2023-04-24T08:23:47;6.10;;;2.33;;
4692;SDS011;11710;48.024;16.296;2023-04-24T08:26:14;6.30;;;2.60;;
4692;SDS011;11710;48.024;16.296;2023-04-24T08:28:43;2.63;;;2.27;;
4692;SDS011;11710;48.024;16.296;2023-04-24T08:31:11;3.40;;;2.27;;
4692;SDS011;11710;48.024;16.296;2023-04-24T08:33:38;1.80;;;1.70;;
4692;SDS011;11710;48.024;16.296;2023-04-24T08:36:06;2.10;;;1.90;;
4692;SDS011;11710;48.024;16.296;2023-04-24T08:38:34;2.47;;;1.60;;
4692;SDS011;11710;48.024;16.296;2023-04-24T08:41:01;1.90;;;1.70;;
4692;SDS011;11710;48.024;16.296;2023-04-24T08:43:29;2.90;;;1.73;;
4692;SDS011;11710;48.024;16.296;2023-04-24T08:46:00;3.00;;;2.07;;
4692;SDS011;11710;48.024;16.296;2023-04-24T08:48:28;2.13;;;2.00;;
4692;SDS011;11710;48.024;16.296;2023-04-24T08:50:56;2.37;;;2.10;;
4692;SDS011;11710;48.024;16.296;2023-04-24T08:53:24;2.10;;;1.90;;
4692;SDS011;11710;48.024;16.296;2023-04-24T08:55:52;1.83;;;1.70;;
4692;SDS011;11710;48.024;16.296;2023-04-24T08:58:23;1.80;;;1.50;;
4692;SDS011;11710;48.024;16.296;2023-04-24T09:00:54;1.67;;;1.57;;
4692;SDS011;11710;48.024;16.296;2023-04-24T09:03:22;4.63;;;1.50;;
4692;SDS011;11710;48.024;16.296;2023-04-24T09:05:50;3.50;;;1.70;;
4692;SDS011;11710;48.024;16.296;2023-04-24T09:08:19;1.60;;;1.50;;
4692;SDS011;11710;48.024;16.296;2023-04-24T09:10:50;1.93;;;1.50;;
4692;SDS011;11710;48.024;16.296;2023-04-24T09:13:18;2.05;;;1.70;;
4692;SDS011;11710;48.024;16.296;2023-04-24T09:15:46;1.60;;;1.50;;
4692;SDS011;11710;48.024;16.296;2023-04-24T09:18:14;2.37;;;1.37;;
4692;SDS011;11710;48.024;16.296;2023-04-24T09:20:58;1.55;;;1.45;;
4692;SDS011;11710;48.024;16.296;2023-04-24T09:23:29;1.27;;;1.17;;
4692;SDS011;11710;48.024;16.296;2023-04-24T09:25:58;3.60;;;1.57;;
4692;SDS011;11710;48.024;16.296;2023-04-24T09:28:27;1.20;;;1.10;;
4692;SDS011;11710;48.024;16.296;2023-04-24T09:31:03;1.57;;;1.30;;
4692;SDS011;11710;48.024;16.296;2023-04-24T09:33:32;1.20;;;1.10;;
4692;SDS011;11710;48.024;16.296;2023-04-24T09:36:02;1.85;;;1.10;;
4692;SDS011;11710;48.024;16.296;2023-04-24T09:38:32;1.52;;;1.20;;
4692;SDS011;11710;48.024;16.296;2023-04-24T09:41:01;1.38;;;0.95;;
4692;SDS011;11710;48.024;16.296;2023-04-24T09:43:30;1.35;;;1.25;;
4692;SDS011;11710;48.024;16.296;2023-04-24T09:45:58;1.25;;;1.15;;
4692;SDS011;11710;48.024;16.296;2023-04-24T09:48:31;2.42;;;1.25;;
4692;SDS011;11710;48.024;16.296;2023-04-24T09:50:59;1.25;;;1.15;;
4692;SDS011;11710;48.024;16.296;2023-04-24T09:53:29;1.40;;;1.10;;
4692;SDS011;11710;48.024;16.296;2023-04-24T09:56:01;1.77;;;1.45;;
4692;SDS011;11710;48.024;16.296;2023-04-24T09:58:29;1.38;;;1.00;;
4692;SDS011;11710;48.024;16.296;2023-04-24T10:00:57;1.25;;;1.15;;
4692;SDS011;11710;48.024;16.296;2023-04-24T10:03:24;3.58;;;0.98;;
4692;SDS011;11710;48.024;16.296;2023-04-24T10:05:57;1.48;;;1.05;;
4692;SDS011;11710;48.024;16.296;2023-04-24T10:08:27;1.05;;;1.00;;
4692;SDS011;11710;48.024;16.296;2023-04-24T10:11:00;2.97;;;1.40;;
4692;SDS011;11710;48.024;16.296;2023-04-24T10:13:28;2.05;;;1.00;;
4692;SDS011;11710;48.024;16.296;2023-04-24T10:15:55;1.45;;;1.20;;
4692;SDS011;11710;48.024;16.296;2023-04-24T10:18:25;1.75;;;1.20;;
4692;SDS011;11710;48.024;16.296;2023-04-24T10:20:54;1.70;;;1.30;;
4692;SDS011;11710;48.024;16.296;2023-04-24T10:23:24;1.55;;;1.45;;
4692;SDS011;11710;48.024;16.296;2023-04-24T10:25:54;1.45;;;1.35;;
4692;SDS011;11710;48.024;16.296;2023-04-24T10:28:22;1.42;;;1.20;;
4692;SDS011;11710;48.024;16.296;2023-04-24T10:30:52;1.40;;;1.30;;
4692;SDS011;11710;48.024;16.296;2023-04-24T10:33:21;1.40;;;1.30;;
4692;SDS011;11710;48.024;16.296;2023-04-24T10:35:50;2.00;;;1.50;;
4692;SDS011;11710;48.024;16.296;2023-04-24T10:38:18;1.50;;;1.40;;
4692;SDS011;11710;48.024;16.296;2023-04-24T10:40:53;1.40;;;1.30;;
4692;SDS011;11710;48.024;16.296;2023-04-24T10:43:33;1.50;;;1.40;;
4692;SDS011;11710;48.024;16.296;2023-04-24T10:46:01;1.80;;;1.70;;
4692;SDS011;11710;48.024;16.296;2023-04-24T10:48:30;1.83;;;1.73;;
4692;SDS011;11710;48.024;16.296;2023-04-24T10:50:58;2.22;;;2.00;;
4692;SDS011;11710;48.024;16.296;2023-04-24T10:53:27;1.50;;;1.40;;
4692;SDS011;11710;48.024;16.296;2023-04-24T10:56:02;1.75;;;1.30;;
4692;SDS011;11710;48.024;16.296;2023-04-24T10:58:39;1.30;;;1.20;;
4692;SDS011;11710;48.024;16.296;2023-04-24T11:01:13;2.65;;;1.30;;
4692;SDS011;11710;48.024;16.296;2023-04-24T11:03:54;1.38;;;1.27;;
4692;SDS011;11710;48.024;16.296;2023-04-24T11:06:28;3.47;;;2.20;;
4692;SDS011;11710;48.024;16.296;2023-04-24T11:09:01;2.33;;;1.40;;
4692;SDS011;11710;48.024;16.296;2023-04-24T11:11:32;1.95;;;1.70;;
4692;SDS011;11710;48.024;16.296;2023-04-24T11:14:01;1.50;;;1.40;;
4692;SDS011;11710;48.024;16.296;2023-04-24T11:16:36;1.65;;;1.40;;
4692;SDS011;11710;48.024;16.296;2023-04-24T11:19:09;1.50;;;1.40;;
4692;SDS011;11710;48.024;16.296;2023-04-24T11:21:46;1.50;;;1.40;;
4692;SDS011;11710;48.024;16.296;2023-04-24T11:24:30;1.73;;;1.40;;
4692;SDS011;11710;48.024;16.296;2023-04-24T11:27:05;1.63;;;1.52;;
4692;SDS011;11710;48.024;16.296;2023-04-24T11:29:44;1.60;;;1.50;;
4692;SDS011;11710;48.024;16.296;2023-04-24T11:32:16;1.45;;;1.35;;
4692;SDS011;11710;48.024;16.296;2023-04-24T11:34:45;1.40;;;1.30;;
4692;SDS011;11710;48.024;16.296;2023-04-24T11:37:13;1.70;;;1.60;;
4692;SDS011;11710;48.024;16.296;2023-04-24T11:39:41;1.40;;;1.30;;
4692;SDS011;11710;48.024;16.296;2023-04-24T11:42:10;1.48;;;1.38;;
4692;SDS011;11710;48.024;16.296;2023-04-24T11:44:40;2.30;;;1.35;;
4692;SDS011;11710;48.024;16.296;2023-04-24T11:47:10;2.10;;;1.42;;
4692;SDS011;11710;48.024;16.296;2023-04-24T11:49:37;1.58;;;1.48;;
4692;SDS011;11710;48.024;16.296;2023-04-24T11:52:05;2.50;;;1.42;;
4692;SDS011;11710;48.024;16.296;2023-04-24T11:54:33;2.10;;;1.70;;
4692;SDS011;11710;48.024;16.296;2023-04-24T11:57:03;1.50;;;1.40;;
4692;SDS011;11710;48.024;16.296;2023-04-24T11:59:36;1.50;;;1.40;;
4692;SDS011;11710;48.024;16.296;2023-04-24T12:02:04;1.30;;;1.20;;
4692;SDS011;11710;48.024;16.296;2023-04-24T12:04:38;1.50;;;1.30;;
4692;SDS011;11710;48.024;16.296;2023-04-24T12:07:06;1.80;;;1.40;;
4692;SDS011;11710;48.024;16.296;2023-04-24T12:09:42;1.50;;;1.40;;
4692;SDS011;11710;48.024;16.296;2023-04-24T12:12:11;2.30;;;1.20;;
4692;SDS011;11710;48.024;16.296;2023-04-24T12:14:43;1.60;;;1.50;;
4692;SDS011;11710;48.024;16.296;2023-04-24T12:17:13;1.48;;;1.38;;
4692;SDS011;11710;48.024;16.296;2023-04-24T12:19:44;1.60;;;1.50;;
4692;SDS011;11710;48.024;16.296;2023-04-24T12:22:13;2.70;;;1.90;;
4692;SDS011;11710;48.024;16.296;2023-04-24T12:25:00;1.97;;;1.70;;
4692;SDS011;11710;48.024;16.296;2023-04-24T12:27:30;1.57;;;1.47;;
4692;SDS011;11710;48.024;16.296;2023-04-24T12:30:00;1.90;;;1.70;;
4692;SDS011;11710;48.024;16.296;2023-04-24T12:32:29;3.10;;;1.63;;
4692;SDS011;11710;48.024;16.296;2023-04-24T12:34:57;2.50;;;1.90;;
4692;SDS011;11710;48.024;16.296;2023-04-24T12:37:25;4.90;;;2.20;;
4692;SDS011;11710;48.024;16.296;2023-04-24T12:39:59;8.70;;;5.33;;
4692;SDS011;11710;48.024;16.296;2023-04-24T12:42:27;5.23;;;2.97;;
4692;SDS011;11710;48.024;16.296;2023-04-24T12:44:56;5.67;;;3.10;;
4692;SDS011;11710;48.024;16.296;2023-04-24T12:47:27;2.10;;;1.90;;
4692;SDS011;11710;48.024;16.296;2023-04-24T12:49:55;3.17;;;2.70;;
4692;SDS011;11710;48.024;16.296;2023-04-24T12:52:22;1.97;;;1.87;;
4692;SDS011;11710;48.024;16.296;2023-04-24T12:54:52;2.43;;;2.03;;
4692;SDS011;11710;48.024;16.296;2023-04-24T12:57:22;1.90;;;1.80;;
4692;SDS011;11710;48.024;16.296;2023-04-24T12:59:49;1.67;;;1.57;;
4692;SDS011;11710;48.024;16.296;2023-04-24T13:02:17;1.40;;;1.30;;
4692;SDS011;11710;48.024;16.296;2023-04-24T13:04:45;2.77;;;1.70;;
4692;SDS011;11710;48.024;16.296;2023-04-24T13:07:13;1.60;;;1.50;;
4692;SDS011;11710;48.024;16.296;2023-04-24T13:09:41;1.60;;;1.50;;
4692;SDS011;11710;48.024;16.296;2023-04-24T13:12:08;2.20;;;2.00;;
4692;SDS011;11710;48.024;16.296;2023-04-24T13:14:36;1.47;;;1.37;;
4692;SDS011;11710;48.024;16.296;2023-04-24T13:17:04;2.40;;;1.83;;
4692;SDS011;11710;48.024;16.296;2023-04-24T13:19:36;7.50;;;2.30;;
4692;SDS011;11710;48.024;16.296;2023-04-24T13:22:05;3.03;;;2.73;;
4692;SDS011;11710;48.024;16.296;2023-04-24T13:24:33;2.00;;;1.90;;
4692;SDS011;11710;48.024;16.296;2023-04-24T13:27:00;2.10;;;1.90;;
4692;SDS011;11710;48.024;16.296;2023-04-24T13:29:28;1.70;;;1.60;;
4692;SDS011;11710;48.024;16.296;2023-04-24T13:31:55;2.70;;;1.97;;
4692;SDS011;11710;48.024;16.296;2023-04-24T13:34:23;2.27;;;2.03;;
4692;SDS011;11710;48.024;16.296;2023-04-24T13:36:52;2.20;;;2.00;;
4692;SDS011;11710;48.024;16.296;2023-04-24T13:39:22;1.90;;;1.70;;
4692;SDS011;11710;48.024;16.296;2023-04-24T13:41:50;4.00;;;1.70;;
4692;SDS011;11710;48.024;16.296;2023-04-24T13:44:17;1.60;;;1.50;;
4692;SDS011;11710;48.024;16.296;2023-04-24T13:46:46;1.40;;;1.30;;
4692;SDS011;11710;48.024;16.296;2023-04-24T13:49:15;1.57;;;1.47;;
4692;SDS011;11710;48.024;16.296;2023-04-24T13:51:42;1.40;;;1.30;;
4692;SDS011;11710;48.024;16.296;2023-04-24T13:54:10;1.60;;;1.50;;
4692;SDS011;11710;48.024;16.296;2023-04-24T13:56:39;1.60;;;1.50;;
4692;SDS011;11710;48.024;16.296;2023-04-24T13:59:07;1.30;;;1.20;;
4692;SDS011;11710;48.024;16.296;2023-04-24T14:01:34;1.50;;;1.40;;
4692;SDS011;11710;48.024;16.296;2023-04-24T14:04:01;1.20;;;1.20;;
4692;SDS011;11710;48.024;16.296;2023-04-24T14:06:29;1.33;;;1.23;;
4692;SDS011;11710;48.024;16.296;2023-04-24T14:08:56;1.67;;;1.50;;
4692;SDS011;11710;48.024;16.296;2023-04-24T14:11:23;1.23;;;1.07;;
4692;SDS011;11710;48.024;16.296;2023-04-24T14:13:53;1.50;;;1.40;;
4692;SDS011;11710;48.024;16.296;2023-04-24T14:16:22;2.23;;;2.03;;
4692;SDS011;11710;48.024;16.296;2023-04-24T14:19:01;3.50;;;3.20;;
4692;SDS011;11710;48.024;16.296;2023-04-24T14:21:30;2.90;;;2.13;;
4692;SDS011;11710;48.024;16.296;2023-04-24T14:23:58;2.37;;;2.17;;
4692;SDS011;11710;48.024;16.296;2023-04-24T14:26:25;2.90;;;2.70;;
4692;SDS011;11710;48.024;16.296;2023-04-24T14:28:54;3.00;;;2.80;;
4692;SDS011;11710;48.024;16.296;2023-04-24T14:31:22;3.07;;;2.80;;
4692;SDS011;11710;48.024;16.296;2023-04-24T14:33:49;2.40;;;2.20;;
4692;SDS011;11710;48.024;16.296;2023-04-24T14:36:16;2.40;;;2.20;;
4692;SDS011;11710;48.024;16.296;2023-04-24T14:38:44;4.33;;;2.10;;
4692;SDS011;11710;48.024;16.296;2023-04-24T14:41:11;2.53;;;2.33;;
4692;SDS011;11710;48.024;16.296;2023-04-24T14:43:38;2.27;;;2.13;;
4692;SDS011;11710;48.024;16.296;2023-04-24T14:46:07;3.33;;;2.90;;
4692;SDS011;11710;48.024;16.296;2023-04-24T14:48:34;3.13;;;2.90;;
4692;SDS011;11710;48.024;16.296;2023-04-24T14:51:02;4.67;;;3.63;;
4692;SDS011;11710;48.024;16.296;2023-04-24T14:53:30;2.50;;;2.30;;
4692;SDS011;11710;48.024;16.296;2023-04-24T14:55:57;1.80;;;1.70;;
4692;SDS011;11710;48.024;16.296;2023-04-24T14:58:25;1.60;;;1.50;;
4692;SDS011;11710;48.024;16.296;2023-04-24T15:00:52;2.53;;;1.70;;
4692;SDS011;11710;48.024;16.296;2023-04-24T15:03:21;3.10;;;1.80;;
4692;SDS011;11710;48.024;16.296;2023-04-24T15:05:48;2.50;;;1.67;;
4692;SDS011;11710;48.024;16.296;2023-04-24T15:08:16;1.87;;;1.63;;
4692;SDS011;11710;48.024;16.296;2023-04-24T15:10:44;2.50;;;1.70;;
4692;SDS011;11710;48.024;16.296;2023-04-24T15:13:11;2.23;;;2.03;;
4692;SDS011;11710;48.024;16.296;2023-04-24T15:15:38;3.20;;;2.57;;
4692;SDS011;11710;48.024;16.296;2023-04-24T15:18:07;2.80;;;2.50;;
4692;SDS011;11710;48.024;16.296;2023-04-24T15:20:37;3.87;;;2.20;;
4692;SDS011;11710;48.024;16.296;2023-04-24T15:23:07;5.10;;;3.00;;
4692;SDS011;11710;48.024;16.296;2023-04-24T15:25:35;4.15;;;2.60;;
4692;SDS011;11710;48.024;16.296;2023-04-24T15:28:03;4.03;;;3.03;;
4692;SDS011;11710;48.024;16.296;2023-04-24T15:30:31;5.03;;;2.05;;
4692;SDS011;11710;48.024;16.296;2023-04-24T15:32:59;1.75;;;1.65;;
4692;SDS011;11710;48.024;16.296;2023-04-24T15:35:26;1.80;;;1.30;;
4692;SDS011;11710;48.024;16.296;2023-04-24T15:37:57;2.38;;;1.77;;
4692;SDS011;11710;48.024;16.296;2023-04-24T15:40:25;2.20;;;1.80;;
4692;SDS011;11710;48.024;16.296;2023-04-24T15:42:53;1.85;;;1.75;;
4692;SDS011;11710;48.024;16.296;2023-04-24T15:45:20;2.00;;;1.45;;
4692;SDS011;11710;48.024;16.296;2023-04-24T15:47:49;1.77;;;1.63;;
4692;SDS011;11710;48.024;16.296;2023-04-24T15:50:18;1.55;;;1.45;;
4692;SDS011;11710;48.024;16.296;2023-04-24T15:52:47;2.88;;;1.55;;
4692;SDS011;11710;48.024;16.296;2023-04-24T15:55:15;1.45;;;1.35;;
4692;SDS011;11710;48.024;16.296;2023-04-24T15:57:43;2.50;;;2.30;;
4692;SDS011;11710;48.024;16.296;2023-04-24T16:00:10;2.25;;;2.00;;
4692;SDS011;11710;48.024;16.296;2023-04-24T16:02:38;2.35;;;1.92;;
4692;SDS011;11710;48.024;16.296;2023-04-24T16:05:06;3.50;;;2.38;;
4692;SDS011;11710;48.024;16.296;2023-04-24T16:07:34;2.55;;;2.20;;
4692;SDS011;11710;48.024;16.296;2023-04-24T16:10:03;3.50;;;2.42;;
4692;SDS011;11710;48.024;16.296;2023-04-24T16:12:32;4.28;;;3.35;;
4692;SDS011;11710;48.024;16.296;2023-04-24T16:14:59;2.20;;;2.00;;
4692;SDS011;11710;48.024;16.296;2023-04-24T16:17:27;2.30;;;1.88;;
4692;SDS011;11710;48.024;16.296;2023-04-24T16:19:54;4.25;;;2.13;;
4692;SDS011;11710;48.024;16.296;2023-04-24T16:22:21;5.75;;;2.80;;
4692;SDS011;11710;48.024;16.296;2023-04-24T16:24:49;2.25;;;2.05;;
4692;SDS011;11710;48.024;16.296;2023-04-24T16:27:16;5.35;;;2.33;;
4692;SDS011;11710;48.024;16.296;2023-04-24T16:29:45;1.80;;;1.60;;
4692;SDS011;11710;48.024;16.296;2023-04-24T16:32:12;3.40;;;2.10;;
4692;SDS011;11710;48.024;16.296;2023-04-24T16:34:39;6.55;;;3.45;;
4692;SDS011;11710;48.024;16.296;2023-04-24T16:37:06;5.95;;;3.53;;
4692;SDS011;11710;48.024;16.296;2023-04-24T16:39:34;6.55;;;3.20;;
4692;SDS011;11710;48.024;16.296;2023-04-24T16:42:02;6.07;;;3.10;;
4692;SDS011;11710;48.024;16.296;2023-04-24T16:44:30;5.40;;;3.00;;
4692;SDS011;11710;48.024;16.296;2023-04-24T16:46:59;4.30;;;2.72;;
4692;SDS011;11710;48.024;16.296;2023-04-24T16:49:26;4.30;;;2.35;;
4692;SDS011;11710;48.024;16.296;2023-04-24T16:51:55;4.78;;;3.38;;
4692;SDS011;11710;48.024;16.296;2023-04-24T16:54:22;5.18;;;3.42;;
4692;SDS011;11710;48.024;16.296;2023-04-24T16:56:50;3.72;;;3.05;;
4692;SDS011;11710;48.024;16.296;2023-04-24T16:59:17;4.05;;;2.70;;
4692;SDS011;11710;48.024;16.296;2023-04-24T17:01:45;3.20;;;2.45;;
4692;SDS011;11710;48.024;16.296;2023-04-24T17:04:14;3.35;;;2.13;;
4692;SDS011;11710;48.024;16.296;2023-04-24T17:06:41;2.42;;;2.17;;
4692;SDS011;11710;48.024;16.296;2023-04-24T17:09:08;2.47;;;2.05;;
4692;SDS011;11710;48.024;16.296;2023-04-24T17:11:37;3.85;;;2.30;;
4692;SDS011;11710;48.024;16.296;2023-04-24T17:14:04;3.90;;;2.65;;
4692;SDS011;11710;48.024;16.296;2023-04-24T17:16:31;3.40;;;2.65;;
4692;SDS011;11710;48.024;16.296;2023-04-24T17:18:59;3.42;;;2.70;;
4692;SDS011;11710;48.024;16.296;2023-04-24T17:21:27;2.97;;;2.67;;
4692;SDS011;11710;48.024;16.296;2023-04-24T17:23:55;3.25;;;2.78;;
4692;SDS011;11710;48.024;16.296;2023-04-24T17:26:22;3.83;;;3.13;;
4692;SDS011;11710;48.024;16.296;2023-04-24T17:28:50;3.10;;;2.80;;
4692;SDS011;11710;48.024;16.296;2023-04-24T17:31:19;3.30;;;3.00;;
4692;SDS011;11710;48.024;16.296;2023-04-24T17:33:47;3.05;;;2.60;;
4692;SDS011;11710;48.024;16.296;2023-04-24T17:36:14;5.38;;;2.88;;
4692;SDS011;11710;48.024;16.296;2023-04-24T17:38:43;3.58;;;2.50;;
4692;SDS011;11710;48.024;16.296;2023-04-24T17:41:11;4.57;;;3.65;;
4692;SDS011;11710;48.024;16.296;2023-04-24T17:43:41;3.20;;;2.90;;
4692;SDS011;11710;48.024;16.296;2023-04-24T17:46:09;3.20;;;2.97;;
4692;SDS011;11710;48.024;16.296;2023-04-24T17:48:37;8.93;;;4.00;;
4692;SDS011;11710;48.024;16.296;2023-04-24T17:51:05;5.90;;;4.28;;
4692;SDS011;11710;48.024;16.296;2023-04-24T17:53:32;11.70;;;5.82;;
4692;SDS011;11710;48.024;16.296;2023-04-24T17:56:00;15.40;;;7.30;;
4692;SDS011;11710;48.024;16.296;2023-04-24T17:58:28;8.68;;;3.65;;
4692;SDS011;11710;48.024;16.296;2023-04-24T18:00:56;5.55;;;3.42;;
4692;SDS011;11710;48.024;16.296;2023-04-24T18:03:23;5.50;;;3.67;;
4692;SDS011;11710;48.024;16.296;2023-04-24T18:05:50;8.68;;;3.88;;
4692;SDS011;11710;48.024;16.296;2023-04-24T18:08:18;5.55;;;3.45;;
4692;SDS011;11710;48.024;16.296;2023-04-24T18:10:45;10.38;;;5.10;;
4692;SDS011;11710;48.024;16.296;2023-04-24T18:13:14;6.97;;;4.25;;
4692;SDS011;11710;48.024;16.296;2023-04-24T18:15:41;2.88;;;2.55;;
4692;SDS011;11710;48.024;16.296;2023-04-24T18:18:09;7.53;;;3.35;;
4692;SDS011;11710;48.024;16.296;2023-04-24T18:20:36;4.60;;;3.08;;
4692;SDS011;11710;48.024;16.296;2023-04-24T18:23:03;4.75;;;3.00;;
4692;SDS011;11710;48.024;16.296;2023-04-24T18:25:31;4.45;;;3.33;;
4692;SDS011;11710;48.024;16.296;2023-04-24T18:27:58;5.22;;;3.00;;
4692;SDS011;11710;48.024;16.296;2023-04-24T18:30:26;5.20;;;3.05;;
4692;SDS011;11710;48.024;16.296;2023-04-24T18:32:55;5.95;;;3.88;;
4692;SDS011;11710;48.024;16.296;2023-04-24T18:35:22;3.60;;;2.55;;
4692;SDS011;11710;48.024;16.296;2023-04-24T18:37:49;4.88;;;3.20;;
4692;SDS011;11710;48.024;16.296;2023-04-24T18:40:17;5.32;;;2.90;;
4692;SDS011;11710;48.024;16.296;2023-04-24T18:42:44;3.47;;;2.60;;
4692;SDS011;11710;48.024;16.296;2023-04-24T18:45:12;2.30;;;2.10;;
4692;SDS011;11710;48.024;16.296;2023-04-24T18:47:41;2.28;;;2.08;;
4692;SDS011;11710;48.024;16.296;2023-04-24T18:50:09;3.30;;;2.55;;
4692;SDS011;11710;48.024;16.296;2023-04-24T18:52:38;4.45;;;2.95;;
4692;SDS011;11710;48.024;16.296;2023-04-24T18:55:07;3.60;;;2.72;;
4692;SDS011;11710;48.024;16.296;2023-04-24T18:57:35;4.47;;;3.00;;
4692;SDS011;11710;48.024;16.296;2023-04-24T19:00:04;3.47;;;2.53;;
4692;SDS011;11710;48.024;16.296;2023-04-24T19:02:33;4.40;;;2.90;;
4692;SDS011;11710;48.024;16.296;2023-04-24T19:05:03;3.13;;;2.35;;
4692;SDS011;11710;48.024;16.296;2023-04-24T19:07:30;3.63;;;2.45;;
4692;SDS011;11710;48.024;16.296;2023-04-24T19:09:58;6.03;;;3.40;;
4692;SDS011;11710;48.024;16.296;2023-04-24T19:12:26;5.25;;;3.05;;
4692;SDS011;11710;48.024;16.296;2023-04-24T19:14:53;6.22;;;3.67;;
4692;SDS011;11710;48.024;16.296;2023-04-24T19:17:22;5.45;;;3.40;;
4692;SDS011;11710;48.024;16.296;2023-04-24T19:19:51;3.38;;;2.70;;
4692;SDS011;11710;48.024;16.296;2023-04-24T19:22:20;2.47;;;2.28;;
4692;SDS011;11710;48.024;16.296;2023-04-24T19:24:49;3.25;;;2.47;;
4692;SDS011;11710;48.024;16.296;2023-04-24T19:27:18;3.65;;;2.45;;
4692;SDS011;11710;48.024;16.296;2023-04-24T19:29:46;2.67;;;2.47;;
4692;SDS011;11710;48.024;16.296;2023-04-24T19:32:15;3.28;;;3.00;;
4692;SDS011;11710;48.024;16.296;2023-04-24T19:34:43;4.25;;;3.42;;
4692;SDS011;11710;48.024;16.296;2023-04-24T19:37:11;3.20;;;2.85;;
4692;SDS011;11710;48.024;16.296;2023-04-24T19:39:41;3.67;;;2.70;;